Latest Weather Observations for Kingscote

IDS60801

Issued at 6:01 am CST Friday 31 July 2015 (issued every 30 minutes, with the page automatically refreshed every 10 minutes)

About weather observations | Map of weather stations | Latest weather observations for SA | Other Formats
Station Details ID: 022841 Name: KINGSCOTE AERO Lat: -35.71 Lon: 137.52 Height: 6.23 m
Data from the previous 72 hours. | See also: Recent months at Kingscote
Date/Time
CST
Temp
°C
App
Temp
°C
Dew
Point
Rel
Hum
%
Delta-T
°C
Wind Press
QNH
hPa
Press
MSL
hPa
Rain
since 9 am
mm
Dir
 
Spd
km/h
Gust
km/h
Spd
kts
Gust
kts
31/06:00am 1.3 -0.6 0.7 96 0.2 CALM 0 0 0 0 1021.1 1021.1 0.6
31/05:30am 1.6 -0.2 0.9 95 0.3 CALM 0 0 0 0 1021.1 1021.1 0.6
31/05:00am 2.1 0.3 1.4 95 0.3 CALM 0 0 0 0 1021.3 1021.3 0.6
31/04:30am 2.4 0.7 1.7 95 0.3 CALM 0 0 0 0 1021.2 1021.2 0.6
31/04:00am 2.8 1.1 1.8 93 0.4 CALM 0 0 0 0 1021.1 1021.1 0.6
31/03:30am 3.4 1.8 2.2 92 0.5 CALM 0 0 0 0 1021.7 1021.7 0.6
31/03:00am 4.7 3.3 3.4 91 0.5 CALM 0 0 0 0 1021.7 1021.7 0.6
31/02:30am 5.2 3.7 3.2 87 0.8 CALM 0 0 0 0 1022.1 1022.1 0.6
31/02:00am 6.6 5.4 4.4 86 0.9 CALM 0 0 0 0 1022.2 1022.2 0.6
31/01:30am 6.8 5.6 4.8 87 0.9 CALM 0 0 0 0 1022.5 1022.5 0.6
31/01:00am 6.7 5.5 4.7 87 0.9 CALM 0 0 0 0 1022.5 1022.5 0.6
31/12:30am 7.2 6.0 4.7 84 1.1 CALM 0 0 0 0 1022.6 1022.6 0.6
31/12:00am 7.5 6.3 4.6 82 1.3 CALM 0 0 0 0 1022.8 1022.8 0.6
 
Date/Time
CST
Temp
°C
App
Temp
°C
Dew
Point
Rel
Hum
%
Delta-T
°C
Wind Press
QNH
hPa
Press
MSL
hPa
Rain
since 9 am
mm
Dir
 
Spd
km/h
Gust
km/h
Spd
kts
Gust
kts
30/11:30pm 7.4 6.3 5.2 86 1.0 CALM 0 0 0 0 1022.8 1022.8 0.6
30/11:00pm 7.2 5.0 5.2 87 0.9 SW 6 11 3 6 1022.8 1022.8 0.6
30/10:30pm 7.1 4.6 4.9 86 1.0 NW 7 13 4 7 1022.7 1022.7 0.6
30/10:00pm 6.7 4.2 4.5 86 1.0 WSW 7 9 4 5 1022.7 1022.7 0.6
30/09:30pm 7.6 5.3 5.6 87 0.9 SW 7 9 4 5 1022.6 1022.6 0.6
30/09:00pm 7.5 4.8 5.5 87 0.9 SW 9 11 5 6 1022.3 1022.3 0.6
30/08:30pm 7.2 4.7 5.0 86 1.0 SW 7 9 4 5 1021.8 1021.8 0.6
30/08:00pm 7.4 4.2 5.0 85 1.1 WSW 11 13 6 7 1021.4 1021.4 0.6
30/07:30pm 8.3 5.5 5.2 81 1.4 SSW 9 9 5 5 1020.9 1020.9 0.6
30/07:00pm 9.8 6.4 5.8 76 1.8 SSW 13 17 7 9 1020.4 1020.4 0.6
30/06:30pm 11.2 6.8 6.7 74 2.1 SSW 19 24 10 13 1020.0 1020.0 0.6
30/06:00pm 11.8 6.8 8.1 78 1.8 SSW 24 32 13 17 1019.6 1019.6 0.6
30/05:30pm 12.1 8.2 8.8 80 1.6 SW 19 30 10 16 1019.1 1019.1 0.6
30/05:00pm 12.4 8.1 9.2 81 1.6 SSW 22 28 12 15 1018.7 1018.7 0.6
30/04:30pm 12.3 8.6 10.0 86 1.2 SSW 20 26 11 14 1018.1 1018.1 0.6
30/04:21pm 12.3 8.2 10.2 87 1.1 SW 22 33 12 18 1017.9 1017.9 0.6
30/04:03pm 12.0 6.4 10.2 89 0.9 SSW 30 39 16 21 1017.8 1017.8 0.6
30/04:00pm 12.3 6.8 10.7 90 0.8 SW 30 39 16 21 1017.8 1017.8 0.6
30/03:30pm 12.5 7.2 11.4 93 0.6 SSW 30 44 16 24 1017.2 1017.2 0.6
30/03:21pm 13.4 7.8 11.5 88 1.0 SW 32 56 17 30 1016.9 1016.9 0.4
30/03:17pm 14.2 9.4 10.4 78 2.0 WSW 26 56 14 30 1016.7 1016.7 0.2
30/03:00pm 16.4 12.5 10.7 69 3.0 WSW 22 35 12 19 1016.1 1016.1 0.2
30/02:30pm 16.6 11.5 10.5 67 3.2 WSW 28 37 15 20 1015.9 1015.9 0.2
30/02:00pm 18.6 13.2 10.9 61 4.2 W 30 41 16 22 1015.6 1015.6 0.2
30/01:30pm 18.1 11.8 11.2 64 3.7 W 35 46 19 25 1015.4 1015.4 0.2
30/01:00pm 18.0 12.5 12.0 68 3.3 W 32 52 17 28 1015.4 1015.4 0.2
30/12:56pm 17.3 12.1 11.6 69 3.1 W 30 52 16 28 1015.5 1015.5 0.2
30/12:32pm 15.7 12.5 13.2 85 1.4 W 22 32 12 17 1015.9 1015.9 0.2
30/12:30pm 16.0 13.1 14.0 88 1.1 W 22 32 12 17 1015.9 1015.9 0.2
30/12:19pm 14.8 11.3 13.3 91 0.8 WNW 24 32 13 17 1016.0 1016.0 0.2
30/12:00pm 13.9 10.0 12.1 89 1.0 NW 24 33 13 18 1016.2 1016.2 0.2
30/11:56am 13.9 9.1 11.6 86 1.2 NW 28 39 15 21 1016.1 1016.1 0.2
30/11:30am 14.8 9.5 10.0 73 2.5 NW 28 39 15 21 1016.1 1016.1 0.2
30/11:00am 15.0 9.1 8.9 67 3.1 NW 30 41 16 22 1016.2 1016.2 0.0
30/10:30am 14.4 9.9 8.4 67 3.0 NNW 22 32 12 17 1016.4 1016.4 0.0
30/10:00am 13.3 7.6 8.2 71 2.5 NNW 28 41 15 22 1016.5 1016.5 0.0
30/09:30am 13.2 8.2 7.9 70 2.6 NNW 24 35 13 19 1016.2 1016.2 0.0
30/09:00am 12.5 8.3 7.4 71 2.5 NNW 19 28 10 15 1016.1 1016.1 0.2
30/08:30am 12.4 7.9 7.1 70 2.5 NNW 20 32 11 17 1016.2 1016.2 0.2
30/08:00am 11.7 7.4 7.2 74 2.2 NNW 19 30 10 16 1016.5 1016.5 0.2
30/07:30am 11.1 7.3 7.4 78 1.8 N 17 26 9 14 1016.5 1016.5 0.2
30/07:00am 10.8 7.0 7.5 80 1.6 N 17 26 9 14 1016.5 1016.5 0.2
30/06:30am 11.7 8.1 6.6 71 2.4 N 15 20 8 11 1017.0 1017.0 0.0
30/06:00am 12.2 7.7 6.0 66 2.9 N 19 30 10 16 1017.2 1017.2 0.0
30/05:30am 12.1 7.5 6.4 68 2.7 N 20 32 11 17 1017.1 1017.1 0.0
30/05:00am 12.1 6.3 6.4 68 2.7 N 26 39 14 21 1016.6 1016.6 0.0
30/04:30am 11.9 6.6 6.6 70 2.5 N 24 35 13 19 1016.6 1016.6 0.0
30/04:00am 12.1 6.3 6.4 68 2.7 NNW 26 41 14 22 1017.4 1017.4 0.0
30/03:30am 12.1 7.5 6.4 68 2.7 NNW 20 33 11 18 1018.2 1018.2 0.0
30/03:00am 12.1 8.0 6.2 67 2.8 N 17 28 9 15 1018.7 1018.7 0.0
30/02:30am 11.8 7.3 6.1 68 2.7 N 19 32 10 17 1018.9 1018.9 0.0
30/02:00am 11.9 7.2 6.2 68 2.7 N 20 28 11 15 1019.5 1019.5 0.0
30/01:30am 12.2 6.3 5.8 65 3.0 NNW 26 37 14 20 1019.8 1019.8 0.0
30/01:00am 12.2 7.1 6.0 66 2.9 NNW 22 33 12 18 1020.3 1020.3 0.0
30/12:30am 11.7 7.6 7.8 77 1.9 N 19 26 10 14 1020.7 1020.7 0.0
30/12:00am 11.3 7.1 7.6 78 1.8 N 19 28 10 15 1021.0 1021.0 0.0
 
Date/Time
CST
Temp
°C
App
Temp
°C
Dew
Point
Rel
Hum
%
Delta-T
°C
Wind Press
QNH
hPa
Press
MSL
hPa
Rain
since 9 am
mm
Dir
 
Spd
km/h
Gust
km/h
Spd
kts
Gust
kts
29/11:30pm 11.5 7.1 7.6 77 1.9 N 20 30 11 16 1021.3 1021.3 0.0
29/11:00pm 11.6 6.7 7.1 74 2.2 N 22 32 12 17 1021.4 1021.4 0.0
29/10:30pm 11.5 7.0 7.0 74 2.1 N 20 32 11 17 1022.0 1022.0 0.0
29/10:00pm 11.9 6.5 6.4 69 2.6 N 24 35 13 19 1022.3 1022.3 0.0
29/09:30pm 11.7 7.0 6.0 68 2.7 N 20 35 11 19 1022.4 1022.4 0.0
29/09:00pm 11.5 6.0 5.8 68 2.6 N 24 35 13 19 1022.5 1022.5 0.0
29/08:30pm 11.8 7.0 5.7 66 2.8 N 20 32 11 17 1022.6 1022.6 0.0
29/08:00pm 12.1 6.2 5.9 66 2.9 N 26 41 14 22 1022.8 1022.8 0.0
29/07:30pm 11.9 7.1 5.5 65 2.9 N 20 30 11 16 1023.2 1023.2 0.0
29/07:00pm 12.1 6.9 5.5 64 3.1 N 22 30 12 16 1023.2 1023.2 0.0
29/06:30pm 12.1 7.5 5.5 64 3.0 N 19 28 10 15 1023.3 1023.3 0.0
29/06:00pm 11.9 7.1 5.5 65 2.9 N 20 32 11 17 1023.3 1023.3 0.0
29/05:30pm 11.6 6.9 5.9 68 2.6 NNW 20 32 11 17 1023.2 1023.2 0.0
29/05:00pm 11.9 6.5 6.2 68 2.7 NNW 24 35 13 19 1023.1 1023.1 0.0
29/04:30pm 11.9 6.8 6.2 68 2.7 NNW 22 33 12 18 1023.4 1023.4 0.0
29/04:00pm 12.3 7.9 6.6 68 2.7 N 19 30 10 16 1023.5 1023.5 0.0
29/03:30pm 12.9 7.9 6.3 64 3.1 NNW 22 33 12 18 1023.6 1023.6 0.0
29/03:00pm 12.6 7.5 7.5 71 2.5 N 24 33 13 18 1023.7 1023.7 0.0
29/02:30pm 12.4 7.1 8.3 76 2.0 N 26 39 14 21 1023.9 1023.9 0.0
29/02:00pm 12.1 6.7 8.0 76 2.0 N 26 41 14 22 1024.3 1024.3 0.0
29/01:30pm 12.1 6.7 7.8 75 2.1 N 26 39 14 21 1025.1 1025.1 0.0
29/01:00pm 12.1 7.4 7.6 74 2.2 N 22 35 12 19 1025.9 1025.9 0.0
29/12:30pm 12.4 7.7 7.9 74 2.2 NNW 22 35 12 19 1026.7 1026.7 0.0
29/12:00pm 12.9 8.6 9.2 78 1.9 N 22 32 12 17 1027.2 1027.2 0.0
29/11:30am 11.7 8.0 8.0 78 1.8 NNW 17 26 9 14 1028.0 1028.0 0.0
29/11:00am 11.5 8.6 8.2 80 1.6 N 13 20 7 11 1028.6 1028.6 0.0
29/10:30am 11.5 8.2 8.0 79 1.7 N 15 22 8 12 1028.8 1028.8 0.0
29/10:00am 11.4 7.3 7.9 79 1.7 N 19 28 10 15 1029.1 1029.1 0.0
29/09:30am 11.0 7.3 8.0 82 1.4 N 17 24 9 13 1029.7 1029.7 0.0
29/09:00am 10.9 7.5 7.8 81 1.5 N 15 24 8 13 1029.6 1029.6 0.6
29/08:30am 10.6 7.1 7.3 80 1.6 N 15 24 8 13 1029.7 1029.7 0.6
29/08:00am 10.3 7.1 7.0 80 1.6 N 13 17 7 9 1029.7 1029.7 0.6
29/07:30am 10.2 6.6 6.7 79 1.6 N 15 20 8 11 1029.8 1029.8 0.6
29/07:00am 10.1 6.1 6.6 79 1.6 N 17 20 9 11 1029.5 1029.5 0.6
29/06:30am 10.4 5.8 6.4 76 1.9 N 20 28 11 15 1029.5 1029.5 0.6
29/06:00am 9.1 5.8 6.5 84 1.2 NE 13 17 7 9 1028.8 1028.8 0.6
29/05:30am 9.5 6.1 7.6 88 0.9 N 15 20 8 11 1029.2 1029.2 0.6
29/05:23am 9.1 5.9 8.6 97 0.2 N 15 19 8 10 1029.2 1029.2 0.6
29/05:00am 4.1 2.7 3.7 97 0.2 CALM 0 0 0 0 1029.8 1029.8 0.6
29/04:30am 3.7 1.1 3.3 97 0.2 NNE 6 9 3 5 1029.5 1029.5 0.6
29/04:00am 3.5 2.0 3.1 97 0.2 CALM 0 0 0 0 1029.7 1029.7 0.6
29/03:30am 2.7 1.1 2.3 97 0.2 CALM 0 0 0 0 1030.6 1030.6 0.6
29/03:00am 3.1 1.5 2.7 97 0.2 CALM 0 0 0 0 1030.0 1030.0 0.6
29/02:30am 2.7 1.1 2.3 97 0.2 CALM 0 0 0 0 1030.4 1030.4 0.6
29/02:00am 2.6 0.9 2.0 96 0.2 CALM 0 0 0 0 1031.0 1031.0 0.6
29/01:30am 3.1 1.5 2.7 97 0.2 CALM 0 0 0 0 1030.9 1030.9 0.6
29/01:00am 2.9 1.3 2.3 96 0.2 CALM 0 0 0 0 1031.1 1031.1 0.6
29/12:30am 2.9 1.3 2.3 96 0.2 CALM 0 0 0 0 1031.8 1031.8 0.6
29/12:00am 3.2 1.6 2.6 96 0.2 CALM 0 0 0 0 1032.1 1032.1 0.6
 
Date/Time
CST
Temp
°C
App
Temp
°C
Dew
Point
Rel
Hum
%
Delta-T
°C
Wind Press
QNH
hPa
Press
MSL
hPa
Rain
since 9 am
mm
Dir
 
Spd
km/h
Gust
km/h
Spd
kts
Gust
kts
28/11:34pm 3.3 1.7 2.7 96 0.2 CALM 0 0 0 0 1032.3 1032.3 0.6
28/11:30pm 3.4 1.8 2.7 95 0.3 CALM 0 0 0 0 1032.2 1032.2 0.6
28/11:00pm 4.1 2.7 3.5 96 0.2 CALM 0 0 0 0 1032.2 1032.2 0.6
28/10:58pm 4.2 2.8 3.6 96 0.2 CALM 0 0 0 0 1032.4 1032.4 0.6
28/10:30pm 4.4 3.0 3.8 96 0.2 CALM 0 0 0 0 1033.0 1033.0 0.6
28/10:00pm 4.6 3.3 4.0 96 0.3 CALM 0 6 0 3 1033.4 1033.4 0.6
28/09:30pm 5.2 3.6 4.5 95 0.3 NNW 2 7 1 4 1033.6 1033.6 0.6
28/09:00pm 5.5 4.3 4.6 94 0.4 CALM 0 0 0 0 1033.8 1033.8 0.6
28/08:30pm 6.0 4.9 5.0 93 0.4 CALM 0 0 0 0 1034.0 1034.0 0.6
28/08:00pm 6.8 5.8 5.6 92 0.5 CALM 0 0 0 0 1034.0 1034.0 0.6
28/07:30pm 7.5 6.6 6.0 90 0.7 CALM 0 2 0 1 1034.1 1034.1 0.6
28/07:00pm 8.5 6.6 6.5 87 0.9 NNE 6 7 3 4 1034.0 1034.0 0.6
28/06:30pm 8.5 7.7 6.6 88 0.9 CALM 0 9 0 5 1034.0 1034.0 0.6
28/06:00pm 10.0 9.0 7.3 83 1.3 NNE 2 6 1 3 1033.9 1033.9 0.6
28/05:30pm 10.7 8.5 7.9 83 1.3 N 9 13 5 7 1033.9 1033.9 0.6
28/05:00pm 11.1 8.3 8.7 85 1.2 NNW 13 17 7 9 1034.0 1034.0 0.6
28/04:30pm 11.9 8.8 8.7 81 1.6 NNW 15 22 8 12 1034.3 1034.3 0.6
28/04:00pm 12.4 10.0 8.7 78 1.8 N 11 15 6 8 1034.0 1034.0 0.6
28/03:30pm 12.9 10.1 8.4 74 2.2 NNW 13 19 7 10 1034.2 1034.2 0.6
28/03:00pm 12.8 9.8 9.4 80 1.7 NNW 15 20 8 11 1034.5 1034.5 0.6
28/02:30pm 11.8 11.0 9.5 86 1.1 N 4 7 2 4 1034.2 1034.2 0.6
28/02:00pm 11.4 8.9 9.7 89 0.9 W 13 19 7 10 1034.5 1034.5 0.6
28/01:31pm 11.6 10.0 10.2 91 0.7 WNW 9 11 5 6 1034.8 1034.8 0.6
28/01:30pm 11.7 10.1 10.3 91 0.7 WNW 9 11 5 6 1034.9 1034.9 0.6
28/01:01pm 11.3 7.4 9.4 88 1.0 WNW 20 26 11 14 1035.5 1035.5 0.0
28/01:00pm 11.5 7.8 9.6 88 1.0 NW 19 26 10 14 1035.5 1035.5 0.0
28/12:30pm 11.8 8.8 9.2 84 1.3 N 15 20 8 11 1036.1 1036.1 0.0
28/12:19pm 11.6 9.4 9.3 86 1.2 NNW 11 20 6 11 1036.3 1036.3 0.0
28/12:05pm 10.9 7.1 9.2 89 0.8 WNW 19 24 10 13 1036.6 1036.6 0.0
28/12:00pm 11.6 7.8 9.7 88 1.0 NW 20 28 11 15 1036.5 1036.5 0.0
28/11:30am 13.7 10.7 9.2 74 2.3 N 15 19 8 10 1036.7 1036.7 0.0
28/11:00am 12.9 9.5 9.0 77 2.0 N 17 20 9 11 1037.2 1037.2 0.0
28/10:30am 12.2 9.2 9.2 82 1.5 NNW 15 24 8 13 1037.4 1037.4 0.0
28/10:00am 11.4 11.2 10.6 95 0.4 NNE 2 13 1 7 1037.3 1037.3 0.0
28/09:30am 8.3 7.8 8.0 98 0.1 CALM 0 0 0 0 1037.1 1037.1 0.0
28/09:00am 5.5 4.4 5.2 98 0.1 CALM 0 0 0 0 1037.2 1037.2 0.2
28/08:30am 2.9 1.3 2.6 98 0.1 CALM 0 0 0 0 1037.0 1037.0 0.2
28/08:00am 1.2 -0.6 0.9 98 0.1 CALM 0 0 0 0 1036.5 1036.5 0.0
28/07:30am 0.4 -1.6 0.1 98 0.1 CALM 0 0 0 0 1036.7 1036.7 0.0
28/07:00am 0.9 -1.0 0.6 98 0.1 CALM 0 0 0 0 1036.8 1036.8 0.0
28/06:30am 0.7 -1.2 0.4 98 0.1 CALM 0 0 0 0 1036.9 1036.9 0.0

Other Formats:

Comma delimited format used in spreadsheet applications
http://www.bom.gov.au/fwo/IDS60801/IDS60801.95807.axf

JavaScript Object Notation format (JSON) in row-major order
http://www.bom.gov.au/fwo/IDS60801/IDS60801.95807.json